Terminal Aerodrome Forecast
Issued by NWS Pocatello, ID

Home | Current Version | Previous Version | Text Only | Print | Product List | Glossary On
Versions: 1 2 3 4 5 6 7 8 9 10 11 12 13 14
000
FTUS45 KPIH 201100
TAFBYI
TAF
KBYI 201120Z 2012/2112 VRB05KT P6SM SKC
     FM201900 15011KT P6SM SCT080
     FM210400 18008KT P6SM VCSH BKN100=

USA.gov is the U.S. government's official web portal to all federal, state and local government web resources and services.